sensor_id;sensor_type;location;lat;lon;timestamp;pressure;altitude;pressure_sealevel;temperature;humidity
21824;BME280;11074;48.596;9.238;2023-04-25T00:01:21;97650.31;;;10.84;80.41
21824;BME280;11074;48.596;9.238;2023-04-25T00:03:48;97643.41;;;10.88;80.15
21824;BME280;11074;48.596;9.238;2023-04-25T00:06:14;97638.81;;;10.78;80.80
21824;BME280;11074;48.596;9.238;2023-04-25T00:08:40;97635.59;;;10.56;81.77
21824;BME280;11074;48.596;9.238;2023-04-25T00:11:06;97630.22;;;10.51;82.13
21824;BME280;11074;48.596;9.238;2023-04-25T00:13:32;97625.16;;;10.55;82.75
21824;BME280;11074;48.596;9.238;2023-04-25T00:15:58;97628.94;;;10.64;81.25
21824;BME280;11074;48.596;9.238;2023-04-25T00:18:26;97641.25;;;10.75;81.09
21824;BME280;11074;48.596;9.238;2023-04-25T00:20:55;97639.91;;;10.82;81.49
21824;BME280;11074;48.596;9.238;2023-04-25T00:23:21;97648.47;;;10.84;81.51
21824;BME280;11074;48.596;9.238;2023-04-25T00:25:48;97644.44;;;10.87;81.57
21824;BME280;11074;48.596;9.238;2023-04-25T00:28:15;97641.25;;;10.80;80.70
21824;BME280;11074;48.596;9.238;2023-04-25T00:30:42;97646.59;;;10.80;80.84
21824;BME280;11074;48.596;9.238;2023-04-25T00:33:08;97642.28;;;10.69;82.40
21824;BME280;11074;48.596;9.238;2023-04-25T00:35:35;97649.50;;;10.73;81.04
21824;BME280;11074;48.596;9.238;2023-04-25T00:38:01;97643.63;;;10.76;82.11
21824;BME280;11074;48.596;9.238;2023-04-25T00:40:28;97635.91;;;10.75;81.60
21824;BME280;11074;48.596;9.238;2023-04-25T00:42:54;97626.53;;;10.72;82.41
21824;BME280;11074;48.596;9.238;2023-04-25T00:45:20;97626.50;;;10.57;83.46
21824;BME280;11074;48.596;9.238;2023-04-25T00:47:46;97629.69;;;10.49;83.75
21824;BME280;11074;48.596;9.238;2023-04-25T00:50:15;97629.97;;;10.53;83.74
21824;BME280;11074;48.596;9.238;2023-04-25T00:52:44;97632.41;;;10.64;83.60
21824;BME280;11074;48.596;9.238;2023-04-25T00:55:12;97620.38;;;10.67;83.48
21824;BME280;11074;48.596;9.238;2023-04-25T00:57:38;97626.25;;;10.69;82.48
21824;BME280;11074;48.596;9.238;2023-04-25T01:00:09;97619.81;;;10.65;82.58
21824;BME280;11074;48.596;9.238;2023-04-25T01:02:36;97618.75;;;10.61;82.72
21824;BME280;11074;48.596;9.238;2023-04-25T01:05:03;97617.41;;;10.53;83.15
21824;BME280;11074;48.596;9.238;2023-04-25T01:07:29;97615.78;;;10.42;83.68
21824;BME280;11074;48.596;9.238;2023-04-25T01:09:56;97607.25;;;10.50;84.09
21824;BME280;11074;48.596;9.238;2023-04-25T01:12:23;97614.75;;;10.48;83.58
21824;BME280;11074;48.596;9.238;2023-04-25T01:14:49;97611.25;;;10.53;82.97
21824;BME280;11074;48.596;9.238;2023-04-25T01:17:15;97608.84;;;10.51;82.68
21824;BME280;11074;48.596;9.238;2023-04-25T01:19:41;97602.16;;;10.44;83.12
21824;BME280;11074;48.596;9.238;2023-04-25T01:22:07;97602.97;;;10.44;84.24
21824;BME280;11074;48.596;9.238;2023-04-25T01:24:36;97595.75;;;10.55;83.45
21824;BME280;11074;48.596;9.238;2023-04-25T01:27:03;97595.50;;;10.66;83.41
21824;BME280;11074;48.596;9.238;2023-04-25T01:29:32;97592.31;;;10.64;83.37
21824;BME280;11074;48.596;9.238;2023-04-25T01:31:58;97594.94;;;10.59;83.38
21824;BME280;11074;48.596;9.238;2023-04-25T01:34:24;97587.75;;;10.55;83.07
21824;BME280;11074;48.596;9.238;2023-04-25T01:36:51;97590.97;;;10.62;83.31
21824;BME280;11074;48.596;9.238;2023-04-25T01:39:18;97595.22;;;10.58;83.57
21824;BME280;11074;48.596;9.238;2023-04-25T01:41:45;97601.66;;;10.67;83.81
21824;BME280;11074;48.596;9.238;2023-04-25T01:44:11;97589.09;;;10.67;83.02
21824;BME280;11074;48.596;9.238;2023-04-25T01:46:37;97586.69;;;10.66;82.62
21824;BME280;11074;48.596;9.238;2023-04-25T01:49:02;97587.75;;;10.60;82.81
21824;BME280;11074;48.596;9.238;2023-04-25T01:51:28;97589.63;;;10.69;82.81
21824;BME280;11074;48.596;9.238;2023-04-25T01:53:55;97587.50;;;10.71;82.13
21824;BME280;11074;48.596;9.238;2023-04-25T01:56:21;97597.09;;;10.67;82.89
21824;BME280;11074;48.596;9.238;2023-04-25T01:58:47;97593.09;;;10.65;81.57
21824;BME280;11074;48.596;9.238;2023-04-25T02:01:13;97596.31;;;10.67;81.95
21824;BME280;11074;48.596;9.238;2023-04-25T02:03:38;97600.34;;;10.69;81.73
21824;BME280;11074;48.596;9.238;2023-04-25T02:06:05;97598.72;;;10.68;83.15
21824;BME280;11074;48.596;9.238;2023-04-25T02:08:30;97600.34;;;10.69;83.38
21824;BME280;11074;48.596;9.238;2023-04-25T02:10:57;97597.91;;;10.63;83.21
21824;BME280;11074;48.596;9.238;2023-04-25T02:13:22;97599.00;;;10.67;83.76
21824;BME280;11074;48.596;9.238;2023-04-25T02:15:48;97607.25;;;10.60;83.30
21824;BME280;11074;48.596;9.238;2023-04-25T02:18:14;97604.88;;;10.59;83.26
21824;BME280;11074;48.596;9.238;2023-04-25T02:20:42;97601.38;;;10.43;85.34
21824;BME280;11074;48.596;9.238;2023-04-25T02:23:08;97587.47;;;10.46;85.40
21824;BME280;11074;48.596;9.238;2023-04-25T02:25:34;97585.59;;;10.47;85.81
21824;BME280;11074;48.596;9.238;2023-04-25T02:28:00;97582.66;;;10.43;86.39
21824;BME280;11074;48.596;9.238;2023-04-25T02:30:25;97571.69;;;10.45;86.49
21824;BME280;11074;48.596;9.238;2023-04-25T02:32:51;97573.56;;;10.54;86.23
21824;BME280;11074;48.596;9.238;2023-04-25T02:35:17;97569.84;;;10.55;86.87
21824;BME280;11074;48.596;9.238;2023-04-25T02:37:42;97564.75;;;10.49;85.89
21824;BME280;11074;48.596;9.238;2023-04-25T02:40:09;97563.41;;;10.51;87.38
21824;BME280;11074;48.596;9.238;2023-04-25T02:42:35;97563.41;;;10.46;86.43
21824;BME280;11074;48.596;9.238;2023-04-25T02:45:01;97573.31;;;10.46;85.75
21824;BME280;11074;48.596;9.238;2023-04-25T02:47:27;97576.22;;;10.34;86.51
21824;BME280;11074;48.596;9.238;2023-04-25T02:49:53;97577.03;;;10.34;87.38
21824;BME280;11074;48.596;9.238;2023-04-25T02:52:19;97570.06;;;10.33;86.66
21824;BME280;11074;48.596;9.238;2023-04-25T02:54:44;97570.59;;;10.35;86.92
21824;BME280;11074;48.596;9.238;2023-04-25T02:57:10;97571.41;;;10.31;86.33
21824;BME280;11074;48.596;9.238;2023-04-25T02:59:35;97565.25;;;10.35;86.07
21824;BME280;11074;48.596;9.238;2023-04-25T03:02:02;97561.81;;;10.35;85.87
21824;BME280;11074;48.596;9.238;2023-04-25T03:04:27;97562.34;;;10.37;85.23
21824;BME280;11074;48.596;9.238;2023-04-25T03:06:53;97555.66;;;10.29;84.94
21824;BME280;11074;48.596;9.238;2023-04-25T03:09:19;97562.06;;;10.33;84.71
21824;BME280;11074;48.596;9.238;2023-04-25T03:11:45;97554.34;;;10.37;84.54
21824;BME280;11074;48.596;9.238;2023-04-25T03:14:12;97554.31;;;10.32;85.09
21824;BME280;11074;48.596;9.238;2023-04-25T03:16:38;97555.13;;;10.32;85.58
21824;BME280;11074;48.596;9.238;2023-04-25T03:19:04;97555.13;;;10.38;86.12
21824;BME280;11074;48.596;9.238;2023-04-25T03:21:32;97554.59;;;10.35;85.38
21824;BME280;11074;48.596;9.238;2023-04-25T03:24:02;97554.03;;;10.33;85.58
21824;BME280;11074;48.596;9.238;2023-04-25T03:26:28;97562.88;;;10.29;85.25
21824;BME280;11074;48.596;9.238;2023-04-25T03:28:54;97560.72;;;10.26;84.90
21824;BME280;11074;48.596;9.238;2023-04-25T03:31:20;97548.16;;;10.21;84.67
21824;BME280;11074;48.596;9.238;2023-04-25T03:33:46;97558.84;;;10.16;85.66
21824;BME280;11074;48.596;9.238;2023-04-25T03:36:11;97554.25;;;10.12;84.55
21824;BME280;11074;48.596;9.238;2023-04-25T03:38:37;97541.47;;;10.14;85.48
21824;BME280;11074;48.596;9.238;2023-04-25T03:41:03;97546.53;;;10.15;86.04
21824;BME280;11074;48.596;9.238;2023-04-25T03:43:29;97544.41;;;10.17;84.92
21824;BME280;11074;48.596;9.238;2023-04-25T03:45:54;97543.06;;;10.20;84.85
21824;BME280;11074;48.596;9.238;2023-04-25T03:48:20;97543.06;;;10.20;84.27
21824;BME280;11074;48.596;9.238;2023-04-25T03:50:50;97547.88;;;10.23;83.65
21824;BME280;11074;48.596;9.238;2023-04-25T03:53:15;97547.09;;;10.22;84.62
21824;BME280;11074;48.596;9.238;2023-04-25T03:55:41;97544.41;;;10.22;83.87
21824;BME280;11074;48.596;9.238;2023-04-25T03:58:07;97544.16;;;10.24;83.66
21824;BME280;11074;48.596;9.238;2023-04-25T04:00:37;97541.75;;;10.22;82.91
21824;BME280;11074;48.596;9.238;2023-04-25T04:03:03;97542.25;;;10.19;83.57
21824;BME280;11074;48.596;9.238;2023-04-25T04:05:28;97548.16;;;10.16;83.90
21824;BME280;11074;48.596;9.238;2023-04-25T04:07:55;97549.97;;;10.11;82.35
21824;BME280;11074;48.596;9.238;2023-04-25T04:10:21;97545.69;;;10.10;83.37
21824;BME280;11074;48.596;9.238;2023-04-25T04:12:47;97552.06;;;9.99;83.30
21824;BME280;11074;48.596;9.238;2023-04-25T04:15:13;97551.56;;;10.02;83.01
21824;BME280;11074;48.596;9.238;2023-04-25T04:17:41;97549.69;;;10.07;82.97
21824;BME280;11074;48.596;9.238;2023-04-25T04:20:07;97550.50;;;9.98;83.52
21824;BME280;11074;48.596;9.238;2023-04-25T04:22:34;97555.53;;;9.94;84.55
21824;BME280;11074;48.596;9.238;2023-04-25T04:25:00;97561.69;;;9.90;84.86
21824;BME280;11074;48.596;9.238;2023-04-25T04:27:26;97565.91;;;9.86;85.30
21824;BME280;11074;48.596;9.238;2023-04-25T04:29:55;97565.41;;;9.94;85.51
21824;BME280;11074;48.596;9.238;2023-04-25T04:32:21;97570.75;;;9.89;85.54
21824;BME280;11074;48.596;9.238;2023-04-25T04:34:49;97573.72;;;9.97;85.80
21824;BME280;11074;48.596;9.238;2023-04-25T04:37:14;97579.25;;;9.81;86.21
21824;BME280;11074;48.596;9.238;2023-04-25T04:39:40;97566.13;;;9.74;85.82
21824;BME280;11074;48.596;9.238;2023-04-25T04:42:06;97558.72;;;9.81;85.90
21824;BME280;11074;48.596;9.238;2023-04-25T04:44:32;97560.34;;;9.87;85.04
21824;BME280;11074;48.596;9.238;2023-04-25T04:46:59;97556.88;;;9.92;85.71
21824;BME280;11074;48.596;9.238;2023-04-25T04:49:24;97561.41;;;9.91;85.01
21824;BME280;11074;48.596;9.238;2023-04-25T04:51:50;97564.59;;;9.88;85.35
21824;BME280;11074;48.596;9.238;2023-04-25T04:54:16;97572.34;;;9.90;85.43
21824;BME280;11074;48.596;9.238;2023-04-25T04:56:42;97571.78;;;9.83;85.97
21824;BME280;11074;48.596;9.238;2023-04-25T04:59:08;97585.63;;;9.80;86.43
21824;BME280;11074;48.596;9.238;2023-04-25T05:01:34;97581.13;;;9.80;86.12
21824;BME280;11074;48.596;9.238;2023-04-25T05:04:03;97585.91;;;9.78;85.84
21824;BME280;11074;48.596;9.238;2023-04-25T05:06:30;97594.44;;;9.75;86.35
21824;BME280;11074;48.596;9.238;2023-04-25T05:08:57;97584.78;;;9.69;86.02
21824;BME280;11074;48.596;9.238;2023-04-25T05:11:24;97593.06;;;9.62;85.99
21824;BME280;11074;48.596;9.238;2023-04-25T05:13:52;97590.38;;;9.62;86.47
21824;BME280;11074;48.596;9.238;2023-04-25T05:16:19;97588.00;;;9.66;85.35
21824;BME280;11074;48.596;9.238;2023-04-25T05:18:46;97591.00;;;9.85;85.13
21824;BME280;11074;48.596;9.238;2023-04-25T05:21:12;97591.59;;;9.97;84.87
21824;BME280;11074;48.596;9.238;2023-04-25T05:23:38;97592.41;;;10.02;84.12
21824;BME280;11074;48.596;9.238;2023-04-25T05:26:04;97587.56;;;9.94;83.55
21824;BME280;11074;48.596;9.238;2023-04-25T05:28:29;97594.25;;;9.97;84.17
21824;BME280;11074;48.596;9.238;2023-04-25T05:30:56;97596.13;;;10.01;83.62
21824;BME280;11074;48.596;9.238;2023-04-25T05:33:21;97588.41;;;10.05;84.87
21824;BME280;11074;48.596;9.238;2023-04-25T05:35:47;97587.94;;;10.13;84.04
21824;BME280;11074;48.596;9.238;2023-04-25T05:38:12;97595.44;;;10.16;84.11
21824;BME280;11074;48.596;9.238;2023-04-25T05:40:38;97596.44;;;10.10;83.85
21824;BME280;11074;48.596;9.238;2023-04-25T05:43:04;97596.50;;;10.20;84.67
21824;BME280;11074;48.596;9.238;2023-04-25T05:45:29;97583.72;;;10.27;83.85
21824;BME280;11074;48.596;9.238;2023-04-25T05:47:55;97586.63;;;10.35;84.34
21824;BME280;11074;48.596;9.238;2023-04-25T05:50:21;97582.13;;;10.46;84.76
21824;BME280;11074;48.596;9.238;2023-04-25T05:52:46;97586.94;;;10.54;84.49
21824;BME280;11074;48.596;9.238;2023-04-25T05:55:12;97586.41;;;10.57;82.43
21824;BME280;11074;48.596;9.238;2023-04-25T05:57:39;97577.63;;;10.62;81.31
21824;BME280;11074;48.596;9.238;2023-04-25T06:00:08;97583.22;;;10.65;80.44
21824;BME280;11074;48.596;9.238;2023-04-25T06:02:35;97580.00;;;10.68;81.11
21824;BME280;11074;48.596;9.238;2023-04-25T06:05:00;97582.16;;;10.71;81.75
21824;BME280;11074;48.596;9.238;2023-04-25T06:07:29;97574.13;;;10.76;81.11
21824;BME280;11074;48.596;9.238;2023-04-25T06:09:55;97577.06;;;10.80;81.66
21824;BME280;11074;48.596;9.238;2023-04-25T06:12:21;97579.47;;;10.81;81.02
21824;BME280;11074;48.596;9.238;2023-04-25T06:14:47;97580.81;;;10.89;80.52
21824;BME280;11074;48.596;9.238;2023-04-25T06:17:13;97576.25;;;10.94;81.30
21824;BME280;11074;48.596;9.238;2023-04-25T06:19:38;97577.59;;;11.02;81.80
21824;BME280;11074;48.596;9.238;2023-04-25T06:22:04;97579.72;;;11.10;81.35
21824;BME280;11074;48.596;9.238;2023-04-25T06:24:30;97576.78;;;11.17;82.14
21824;BME280;11074;48.596;9.238;2023-04-25T06:26:55;97579.16;;;11.23;80.43
21824;BME280;11074;48.596;9.238;2023-04-25T06:29:21;97579.94;;;11.29;79.80
21824;BME280;11074;48.596;9.238;2023-04-25T06:31:47;97581.56;;;11.35;78.37
21824;BME280;11074;48.596;9.238;2023-04-25T06:34:12;97582.63;;;11.39;78.55
21824;BME280;11074;48.596;9.238;2023-04-25T06:36:38;97580.72;;;11.39;79.93
21824;BME280;11074;48.596;9.238;2023-04-25T06:39:04;97581.28;;;11.36;79.28
21824;BME280;11074;48.596;9.238;2023-04-25T06:41:30;97578.34;;;11.33;78.71
21824;BME280;11074;48.596;9.238;2023-04-25T06:43:55;97585.06;;;11.30;79.58
21824;BME280;11074;48.596;9.238;2023-04-25T06:46:21;97585.06;;;11.25;80.26
21824;BME280;11074;48.596;9.238;2023-04-25T06:48:47;97581.31;;;11.21;78.63
21824;BME280;11074;48.596;9.238;2023-04-25T06:51:12;97586.66;;;11.21;79.99
21824;BME280;11074;48.596;9.238;2023-04-25T06:53:41;97583.97;;;11.21;80.39
21824;BME280;11074;48.596;9.238;2023-04-25T06:56:06;97581.59;;;11.20;80.36
21824;BME280;11074;48.596;9.238;2023-04-25T06:58:32;97580.50;;;11.16;79.87
21824;BME280;11074;48.596;9.238;2023-04-25T07:00:57;97585.59;;;11.17;78.76
21824;BME280;11074;48.596;9.238;2023-04-25T07:03:23;97580.00;;;11.14;78.92
21824;BME280;11074;48.596;9.238;2023-04-25T07:05:50;97583.19;;;11.11;79.28
21824;BME280;11074;48.596;9.238;2023-04-25T07:08:16;97585.88;;;11.11;79.79
21824;BME280;11074;48.596;9.238;2023-04-25T07:10:42;97592.03;;;11.11;79.84
21824;BME280;11074;48.596;9.238;2023-04-25T07:13:08;97580.81;;;11.09;80.11
21824;BME280;11074;48.596;9.238;2023-04-25T07:15:33;97582.91;;;11.07;80.06
21824;BME280;11074;48.596;9.238;2023-04-25T07:17:59;97582.16;;;11.07;81.34
21824;BME280;11074;48.596;9.238;2023-04-25T07:20:25;97583.22;;;11.06;81.05
21824;BME280;11074;48.596;9.238;2023-04-25T07:22:53;97590.19;;;11.02;81.30
21824;BME280;11074;48.596;9.238;2023-04-25T07:25:19;97587.75;;;10.95;80.74
21824;BME280;11074;48.596;9.238;2023-04-25T07:27:45;97591.50;;;10.89;81.08
21824;BME280;11074;48.596;9.238;2023-04-25T07:30:11;97595.78;;;10.85;81.29
21824;BME280;11074;48.596;9.238;2023-04-25T07:32:38;97597.66;;;10.79;82.46
21824;BME280;11074;48.596;9.238;2023-04-25T07:35:04;97596.84;;;10.79;82.09
21824;BME280;11074;48.596;9.238;2023-04-25T07:37:30;97603.00;;;10.74;82.62
21824;BME280;11074;48.596;9.238;2023-04-25T07:39:56;97607.53;;;10.69;84.10
21824;BME280;11074;48.596;9.238;2023-04-25T07:42:21;97607.25;;;10.70;84.45
21824;BME280;11074;48.596;9.238;2023-04-25T07:44:47;97608.06;;;10.66;84.07
21824;BME280;11074;48.596;9.238;2023-04-25T07:47:12;97614.75;;;10.58;84.18
21824;BME280;11074;48.596;9.238;2023-04-25T07:49:39;97617.94;;;10.55;84.99
21824;BME280;11074;48.596;9.238;2023-04-25T07:52:06;97625.44;;;10.48;85.60
21824;BME280;11074;48.596;9.238;2023-04-25T07:54:32;97630.22;;;10.46;85.99
21824;BME280;11074;48.596;9.238;2023-04-25T07:56:58;97635.84;;;10.45;87.19
21824;BME280;11074;48.596;9.238;2023-04-25T07:59:24;97630.75;;;10.43;86.77
21824;BME280;11074;48.596;9.238;2023-04-25T08:01:50;97642.50;;;10.37;86.50
21824;BME280;11074;48.596;9.238;2023-04-25T08:04:17;97642.50;;;10.32;87.04
21824;BME280;11074;48.596;9.238;2023-04-25T08:06:43;97651.31;;;10.32;87.95
21824;BME280;11074;48.596;9.238;2023-04-25T08:09:09;97653.44;;;10.35;86.79
21824;BME280;11074;48.596;9.238;2023-04-25T08:11:36;97655.59;;;10.39;85.52
21824;BME280;11074;48.596;9.238;2023-04-25T08:14:01;97663.34;;;10.40;85.62
21824;BME280;11074;48.596;9.238;2023-04-25T08:16:28;97667.06;;;10.34;86.29
21824;BME280;11074;48.596;9.238;2023-04-25T08:18:54;97672.69;;;10.32;85.33
21824;BME280;11074;48.596;9.238;2023-04-25T08:21:20;97677.22;;;10.32;86.26
21824;BME280;11074;48.596;9.238;2023-04-25T08:23:46;97676.94;;;10.33;85.23
21824;BME280;11074;48.596;9.238;2023-04-25T08:26:12;97672.09;;;10.25;84.27
21824;BME280;11074;48.596;9.238;2023-04-25T08:28:38;97677.75;;;10.29;83.65
21824;BME280;11074;48.596;9.238;2023-04-25T08:31:04;97688.97;;;10.31;84.22
21824;BME280;11074;48.596;9.238;2023-04-25T08:33:30;97686.03;;;10.32;84.25
21824;BME280;11074;48.596;9.238;2023-04-25T08:35:55;97697.25;;;10.34;83.86
21824;BME280;11074;48.596;9.238;2023-04-25T08:38:21;97693.00;;;10.39;83.65
21824;BME280;11074;48.596;9.238;2023-04-25T08:40:50;97697.28;;;10.40;82.84
21824;BME280;11074;48.596;9.238;2023-04-25T08:43:19;97697.00;;;10.41;83.33
21824;BME280;11074;48.596;9.238;2023-04-25T08:45:46;97706.13;;;10.45;83.39
21824;BME280;11074;48.596;9.238;2023-04-25T08:48:15;97706.13;;;10.45;85.41
21824;BME280;11074;48.596;9.238;2023-04-25T08:50:55;97705.59;;;10.48;84.93
21824;BME280;11074;48.596;9.238;2023-04-25T08:53:32;97706.41;;;10.54;85.95
21824;BME280;11074;48.596;9.238;2023-04-25T08:56:00;97720.03;;;10.57;84.87
21824;BME280;11074;48.596;9.238;2023-04-25T08:58:29;97717.91;;;10.59;83.32
21824;BME280;11074;48.596;9.238;2023-04-25T09:00:55;97719.22;;;10.57;81.87
21824;BME280;11074;48.596;9.238;2023-04-25T09:03:21;97725.16;;;10.59;83.25
21824;BME280;11074;48.596;9.238;2023-04-25T09:05:47;97721.38;;;10.60;83.93
21824;BME280;11074;48.596;9.238;2023-04-25T09:08:12;97726.72;;;10.60;83.27
21824;BME280;11074;48.596;9.238;2023-04-25T09:10:39;97732.91;;;10.65;84.06
21824;BME280;11074;48.596;9.238;2023-04-25T09:13:14;97732.38;;;10.68;84.50
21824;BME280;11074;48.596;9.238;2023-04-25T09:15:49;97736.66;;;10.69;84.18
21824;BME280;11074;48.596;9.238;2023-04-25T09:18:33;97738.00;;;10.62;84.38
21824;BME280;11074;48.596;9.238;2023-04-25T09:21:11;97741.44;;;10.62;84.65
21824;BME280;11074;48.596;9.238;2023-04-25T09:23:46;97753.22;;;10.61;85.40
21824;BME280;11074;48.596;9.238;2023-04-25T09:26:18;97744.38;;;10.61;85.62
21824;BME280;11074;48.596;9.238;2023-04-25T09:28:44;97757.75;;;10.61;85.47
21824;BME280;11074;48.596;9.238;2023-04-25T09:31:11;97755.03;;;10.51;85.68
21824;BME280;11074;48.596;9.238;2023-04-25T09:33:37;97760.94;;;10.53;86.00
21824;BME280;11074;48.596;9.238;2023-04-25T09:36:09;97768.66;;;10.49;85.64
21824;BME280;11074;48.596;9.238;2023-04-25T09:38:45;97781.75;;;10.46;85.54
21824;BME280;11074;48.596;9.238;2023-04-25T09:41:11;97781.75;;;10.46;85.50
21824;BME280;11074;48.596;9.238;2023-04-25T09:43:39;97775.84;;;10.49;85.52
21824;BME280;11074;48.596;9.238;2023-04-25T09:46:10;97783.34;;;10.52;85.10
21824;BME280;11074;48.596;9.238;2023-04-25T09:48:37;97788.97;;;10.50;84.62
21824;BME280;11074;48.596;9.238;2023-04-25T09:51:11;97794.31;;;10.50;84.96
21824;BME280;11074;48.596;9.238;2023-04-25T09:53:44;97794.03;;;10.47;84.27
21824;BME280;11074;48.596;9.238;2023-04-25T09:56:12;97800.19;;;10.47;84.05
21824;BME280;11074;48.596;9.238;2023-04-25T09:58:40;97807.41;;;10.52;84.37
21824;BME280;11074;48.596;9.238;2023-04-25T10:01:08;97804.50;;;10.58;84.44
21824;BME280;11074;48.596;9.238;2023-04-25T10:03:37;97803.72;;;10.63;83.92
21824;BME280;11074;48.596;9.238;2023-04-25T10:06:14;97803.47;;;10.64;84.77
21824;BME280;11074;48.596;9.238;2023-04-25T10:08:43;97808.22;;;10.52;84.49
21824;BME280;11074;48.596;9.238;2023-04-25T10:11:10;97811.94;;;10.46;83.90
21824;BME280;11074;48.596;9.238;2023-04-25T10:13:36;97808.72;;;10.44;84.70
21824;BME280;11074;48.596;9.238;2023-04-25T10:16:04;97804.44;;;10.43;83.45
21824;BME280;11074;48.596;9.238;2023-04-25T10:18:32;97798.00;;;10.39;82.97
21824;BME280;11074;48.596;9.238;2023-04-25T10:21:05;97814.53;;;10.31;82.95
21824;BME280;11074;48.596;9.238;2023-04-25T10:23:33;97821.16;;;10.23;84.02
21824;BME280;11074;48.596;9.238;2023-04-25T10:26:02;97825.63;;;10.13;82.99
21824;BME280;11074;48.596;9.238;2023-04-25T10:28:27;97837.31;;;10.07;84.62
21824;BME280;11074;48.596;9.238;2023-04-25T10:31:07;97826.72;;;10.17;83.58
21824;BME280;11074;48.596;9.238;2023-04-25T10:33:39;97827.81;;;10.21;84.58
21824;BME280;11074;48.596;9.238;2023-04-25T10:36:15;97826.75;;;10.22;84.16
21824;BME280;11074;48.596;9.238;2023-04-25T10:38:44;97839.06;;;10.23;83.91
21824;BME280;11074;48.596;9.238;2023-04-25T10:41:12;97843.06;;;10.25;84.80
21824;BME280;11074;48.596;9.238;2023-04-25T10:43:43;97838.84;;;10.29;83.49
21824;BME280;11074;48.596;9.238;2023-04-25T10:46:27;97851.13;;;10.30;82.62
21824;BME280;11074;48.596;9.238;2023-04-25T10:48:59;97848.75;;;10.34;82.95
21824;BME280;11074;48.596;9.238;2023-04-25T10:53:57;97862.94;;;10.40;82.25
21824;BME280;11074;48.596;9.238;2023-04-25T10:56:30;97867.25;;;10.46;81.34
21824;BME280;11074;48.596;9.238;2023-04-25T10:59:19;97872.03;;;10.44;81.05
21824;BME280;11074;48.596;9.238;2023-04-25T11:01:47;97865.91;;;10.43;82.38
21824;BME280;11074;48.596;9.238;2023-04-25T11:04:33;97878.69;;;10.36;82.25
21824;BME280;11074;48.596;9.238;2023-04-25T11:07:23;97878.41;;;10.32;82.49
21824;BME280;11074;48.596;9.238;2023-04-25T11:09:51;97877.09;;;10.35;82.56
21824;BME280;11074;48.596;9.238;2023-04-25T11:12:17;97882.97;;;10.37;82.77
21824;BME280;11074;48.596;9.238;2023-04-25T11:14:43;97884.81;;;10.31;81.96
21824;BME280;11074;48.596;9.238;2023-04-25T11:17:09;97888.78;;;10.29;82.55
21824;BME280;11074;48.596;9.238;2023-04-25T11:19:36;97891.66;;;10.22;81.80
21824;BME280;11074;48.596;9.238;2023-04-25T11:22:03;97897.59;;;10.24;82.03
21824;BME280;11074;48.596;9.238;2023-04-25T11:24:34;97894.13;;;10.29;82.15
21824;BME280;11074;48.596;9.238;2023-04-25T11:27:02;97897.63;;;10.29;81.76
21824;BME280;11074;48.596;9.238;2023-04-25T11:29:30;97897.91;;;10.38;81.95
21824;BME280;11074;48.596;9.238;2023-04-25T11:31:57;97899.56;;;10.44;82.13
21824;BME280;11074;48.596;9.238;2023-04-25T11:34:27;97900.66;;;10.43;82.07
21824;BME280;11074;48.596;9.238;2023-04-25T11:36:56;97897.72;;;10.45;82.52
21824;BME280;11074;48.596;9.238;2023-04-25T11:39:24;97902.75;;;10.41;82.37
21824;BME280;11074;48.596;9.238;2023-04-25T11:41:50;97904.13;;;10.49;82.56
21824;BME280;11074;48.596;9.238;2023-04-25T11:44:17;97904.97;;;10.54;83.18
21824;BME280;11074;48.596;9.238;2023-04-25T11:46:44;97910.31;;;10.54;82.86
21824;BME280;11074;48.596;9.238;2023-04-25T11:49:10;97907.91;;;10.53;82.25
21824;BME280;11074;48.596;9.238;2023-04-25T11:51:45;97899.38;;;10.56;82.61
21824;BME280;11074;48.596;9.238;2023-04-25T11:54:11;97909.53;;;10.54;83.94
21824;BME280;11074;48.596;9.238;2023-04-25T11:56:41;97909.06;;;10.62;82.88
21824;BME280;11074;48.596;9.238;2023-04-25T11:59:07;97910.59;;;10.53;83.38
21824;BME280;11074;48.596;9.238;2023-04-25T12:01:37;97914.81;;;10.49;84.23
21824;BME280;11074;48.596;9.238;2023-04-25T12:06:41;97919.09;;;10.45;84.09
21824;BME280;11074;48.596;9.238;2023-04-25T12:09:10;97920.94;;;10.44;84.10
21824;BME280;11074;48.596;9.238;2023-04-25T12:11:44;97931.34;;;10.41;83.32
21824;BME280;11074;48.596;9.238;2023-04-25T12:14:11;97939.22;;;10.20;84.68
21824;BME280;11074;48.596;9.238;2023-04-25T12:16:42;97940.22;;;10.14;84.29
21824;BME280;11074;48.596;9.238;2023-04-25T12:19:08;97942.19;;;9.97;83.77
21824;BME280;11074;48.596;9.238;2023-04-25T12:21:34;97945.44;;;10.04;84.17
21824;BME280;11074;48.596;9.238;2023-04-25T12:24:16;97945.81;;;10.13;84.70
21824;BME280;11074;48.596;9.238;2023-04-25T12:27:05;97942.22;;;10.29;84.01
21824;BME280;11074;48.596;9.238;2023-04-25T12:29:34;97945.81;;;10.45;84.18
21824;BME280;11074;48.596;9.238;2023-04-25T12:32:00;97941.41;;;10.65;84.50
21824;BME280;11074;48.596;9.238;2023-04-25T12:34:27;97943.44;;;10.90;84.04
21824;BME280;11074;48.596;9.238;2023-04-25T12:36:53;97944.59;;;11.04;84.27
21824;BME280;11074;48.596;9.238;2023-04-25T12:39:22;97938.75;;;11.17;84.13
21824;BME280;11074;48.596;9.238;2023-04-25T12:41:49;97946.00;;;11.22;83.16
21824;BME280;11074;48.596;9.238;2023-04-25T12:44:16;97944.38;;;11.21;82.43
21824;BME280;11074;48.596;9.238;2023-04-25T12:46:42;97943.03;;;11.18;82.33
21824;BME280;11074;48.596;9.238;2023-04-25T12:49:08;97945.16;;;11.16;82.81
21824;BME280;11074;48.596;9.238;2023-04-25T12:51:35;97945.69;;;11.18;82.64
21824;BME280;11074;48.596;9.238;2023-04-25T12:54:03;97955.06;;;11.21;81.93
21824;BME280;11074;48.596;9.238;2023-04-25T12:56:30;97951.06;;;11.18;82.21
21824;BME280;11074;48.596;9.238;2023-04-25T12:58:57;97953.22;;;11.21;82.56
21824;BME280;11074;48.596;9.238;2023-04-25T13:01:23;97961.22;;;11.21;82.29
21824;BME280;11074;48.596;9.238;2023-04-25T13:03:49;97949.69;;;11.16;83.35
21824;BME280;11074;48.596;9.238;2023-04-25T13:06:16;97959.34;;;11.17;82.63